sensor_id;sensor_type;location;lat;lon;timestamp;temperature;humidity
21662;DHT22;10992;48.170;8.596;2023-09-30T00:00:06;14.40;99.90
21662;DHT22;10992;48.170;8.596;2023-09-30T00:02:38;14.50;99.90
21662;DHT22;10992;48.170;8.596;2023-09-30T00:05:05;14.50;99.90
21662;DHT22;10992;48.170;8.596;2023-09-30T00:07:32;14.40;99.90
21662;DHT22;10992;48.170;8.596;2023-09-30T00:10:00;14.40;99.90
21662;DHT22;10992;48.170;8.596;2023-09-30T00:12:27;14.40;99.90
21662;DHT22;10992;48.170;8.596;2023-09-30T00:14:54;14.30;99.90
21662;DHT22;10992;48.170;8.596;2023-09-30T00:17:21;14.20;99.90
21662;DHT22;10992;48.170;8.596;2023-09-30T00:19:48;14.20;99.90
21662;DHT22;10992;48.170;8.596;2023-09-30T00:22:15;14.10;99.90
21662;DHT22;10992;48.170;8.596;2023-09-30T00:24:42;14.00;99.90
21662;DHT22;10992;48.170;8.596;2023-09-30T00:27:09;13.90;99.90
21662;DHT22;10992;48.170;8.596;2023-09-30T00:29:36;13.90;99.90
21662;DHT22;10992;48.170;8.596;2023-09-30T00:32:03;13.80;99.90
21662;DHT22;10992;48.170;8.596;2023-09-30T00:34:37;13.80;99.90
21662;DHT22;10992;48.170;8.596;2023-09-30T00:37:04;13.70;99.90
21662;DHT22;10992;48.170;8.596;2023-09-30T00:39:32;13.60;99.90
21662;DHT22;10992;48.170;8.596;2023-09-30T00:42:00;13.50;99.90
21662;DHT22;10992;48.170;8.596;2023-09-30T00:44:27;13.50;99.90
21662;DHT22;10992;48.170;8.596;2023-09-30T00:46:55;13.40;99.90
21662;DHT22;10992;48.170;8.596;2023-09-30T00:49:23;13.30;99.90
21662;DHT22;10992;48.170;8.596;2023-09-30T00:51:52;13.20;99.90
21662;DHT22;10992;48.170;8.596;2023-09-30T00:54:19;13.10;99.90
21662;DHT22;10992;48.170;8.596;2023-09-30T00:56:48;13.00;99.90
21662;DHT22;10992;48.170;8.596;2023-09-30T00:59:17;12.80;99.90
21662;DHT22;10992;48.170;8.596;2023-09-30T01:01:45;12.80;99.90
21662;DHT22;10992;48.170;8.596;2023-09-30T01:04:13;12.70;99.90
21662;DHT22;10992;48.170;8.596;2023-09-30T01:06:41;12.60;99.90
21662;DHT22;10992;48.170;8.596;2023-09-30T01:09:08;12.60;99.90
21662;DHT22;10992;48.170;8.596;2023-09-30T01:11:35;12.40;99.90
21662;DHT22;10992;48.170;8.596;2023-09-30T01:14:03;12.30;99.90
21662;DHT22;10992;48.170;8.596;2023-09-30T01:16:30;12.20;99.90
21662;DHT22;10992;48.170;8.596;2023-09-30T01:18:57;12.30;99.90
21662;DHT22;10992;48.170;8.596;2023-09-30T01:21:25;12.20;99.90
21662;DHT22;10992;48.170;8.596;2023-09-30T01:23:54;12.10;99.90
21662;DHT22;10992;48.170;8.596;2023-09-30T01:26:21;12.10;99.90
21662;DHT22;10992;48.170;8.596;2023-09-30T01:28:49;12.10;99.90
21662;DHT22;10992;48.170;8.596;2023-09-30T01:31:16;12.20;99.90
21662;DHT22;10992;48.170;8.596;2023-09-30T01:33:43;12.20;99.90
21662;DHT22;10992;48.170;8.596;2023-09-30T01:36:11;12.10;99.90
21662;DHT22;10992;48.170;8.596;2023-09-30T01:38:38;12.10;99.90
21662;DHT22;10992;48.170;8.596;2023-09-30T01:41:05;12.00;99.90
21662;DHT22;10992;48.170;8.596;2023-09-30T01:43:34;11.90;99.90
21662;DHT22;10992;48.170;8.596;2023-09-30T01:46:03;11.70;99.90
21662;DHT22;10992;48.170;8.596;2023-09-30T01:48:32;11.60;99.90
21662;DHT22;10992;48.170;8.596;2023-09-30T01:50:59;11.50;99.90
21662;DHT22;10992;48.170;8.596;2023-09-30T01:53:26;11.50;99.90
21662;DHT22;10992;48.170;8.596;2023-09-30T01:55:53;11.60;99.90
21662;DHT22;10992;48.170;8.596;2023-09-30T01:58:20;11.70;99.90
21662;DHT22;10992;48.170;8.596;2023-09-30T02:00:47;11.70;99.90
21662;DHT22;10992;48.170;8.596;2023-09-30T02:03:14;11.80;99.90
21662;DHT22;10992;48.170;8.596;2023-09-30T02:05:42;12.00;99.90
21662;DHT22;10992;48.170;8.596;2023-09-30T02:08:09;12.10;99.90
21662;DHT22;10992;48.170;8.596;2023-09-30T02:10:36;12.00;99.90
21662;DHT22;10992;48.170;8.596;2023-09-30T02:13:03;12.00;99.90
21662;DHT22;10992;48.170;8.596;2023-09-30T02:15:33;11.90;99.90
21662;DHT22;10992;48.170;8.596;2023-09-30T02:18:00;11.80;99.90
21662;DHT22;10992;48.170;8.596;2023-09-30T02:20:27;11.80;99.90
21662;DHT22;10992;48.170;8.596;2023-09-30T02:22:57;11.80;99.90
21662;DHT22;10992;48.170;8.596;2023-09-30T02:25:25;11.80;99.90
21662;DHT22;10992;48.170;8.596;2023-09-30T02:27:52;11.80;99.90
21662;DHT22;10992;48.170;8.596;2023-09-30T02:30:19;11.90;99.90
21662;DHT22;10992;48.170;8.596;2023-09-30T02:32:46;12.10;99.90
21662;DHT22;10992;48.170;8.596;2023-09-30T02:35:13;12.00;99.90
21662;DHT22;10992;48.170;8.596;2023-09-30T02:37:42;12.20;99.90
21662;DHT22;10992;48.170;8.596;2023-09-30T02:40:10;12.20;99.90
21662;DHT22;10992;48.170;8.596;2023-09-30T02:42:38;12.40;99.90
21662;DHT22;10992;48.170;8.596;2023-09-30T02:45:06;12.40;99.90
21662;DHT22;10992;48.170;8.596;2023-09-30T02:47:35;12.40;99.90
21662;DHT22;10992;48.170;8.596;2023-09-30T02:50:03;12.40;99.90
21662;DHT22;10992;48.170;8.596;2023-09-30T02:52:31;12.50;99.90
21662;DHT22;10992;48.170;8.596;2023-09-30T02:54:58;12.50;99.90
21662;DHT22;10992;48.170;8.596;2023-09-30T02:57:26;12.50;99.90
21662;DHT22;10992;48.170;8.596;2023-09-30T02:59:54;12.50;99.90
21662;DHT22;10992;48.170;8.596;2023-09-30T03:02:23;12.50;99.90
21662;DHT22;10992;48.170;8.596;2023-09-30T03:04:51;12.40;99.90
21662;DHT22;10992;48.170;8.596;2023-09-30T03:07:19;12.40;99.90
21662;DHT22;10992;48.170;8.596;2023-09-30T03:09:47;12.40;99.90
21662;DHT22;10992;48.170;8.596;2023-09-30T03:12:14;12.40;99.90
21662;DHT22;10992;48.170;8.596;2023-09-30T03:14:41;12.40;99.90
21662;DHT22;10992;48.170;8.596;2023-09-30T03:17:09;12.40;99.90
21662;DHT22;10992;48.170;8.596;2023-09-30T03:19:39;12.40;99.90
21662;DHT22;10992;48.170;8.596;2023-09-30T03:22:06;12.50;99.90
21662;DHT22;10992;48.170;8.596;2023-09-30T03:24:39;12.50;99.90
21662;DHT22;10992;48.170;8.596;2023-09-30T03:27:07;12.50;99.90
21662;DHT22;10992;48.170;8.596;2023-09-30T03:29:38;12.50;99.90
21662;DHT22;10992;48.170;8.596;2023-09-30T03:32:05;12.60;99.90
21662;DHT22;10992;48.170;8.596;2023-09-30T03:34:33;12.50;99.90
21662;DHT22;10992;48.170;8.596;2023-09-30T03:37:04;12.50;99.90
21662;DHT22;10992;48.170;8.596;2023-09-30T03:39:34;12.50;99.90
21662;DHT22;10992;48.170;8.596;2023-09-30T03:42:01;12.60;99.90
21662;DHT22;10992;48.170;8.596;2023-09-30T03:44:29;12.60;99.90
21662;DHT22;10992;48.170;8.596;2023-09-30T03:46:56;12.60;99.90
21662;DHT22;10992;48.170;8.596;2023-09-30T03:49:23;12.60;99.90
21662;DHT22;10992;48.170;8.596;2023-09-30T03:51:51;12.70;99.90
21662;DHT22;10992;48.170;8.596;2023-09-30T03:54:20;12.60;99.90
21662;DHT22;10992;48.170;8.596;2023-09-30T03:56:48;12.60;99.90
21662;DHT22;10992;48.170;8.596;2023-09-30T03:59:14;12.60;99.90
21662;DHT22;10992;48.170;8.596;2023-09-30T04:01:42;12.60;99.90
21662;DHT22;10992;48.170;8.596;2023-09-30T04:04:10;12.50;99.90
21662;DHT22;10992;48.170;8.596;2023-09-30T04:06:38;12.60;99.90
21662;DHT22;10992;48.170;8.596;2023-09-30T04:09:06;12.60;99.90
21662;DHT22;10992;48.170;8.596;2023-09-30T04:11:39;12.60;99.90
21662;DHT22;10992;48.170;8.596;2023-09-30T04:14:07;12.50;99.90
21662;DHT22;10992;48.170;8.596;2023-09-30T04:16:35;12.40;99.90
21662;DHT22;10992;48.170;8.596;2023-09-30T04:19:02;12.40;99.90
21662;DHT22;10992;48.170;8.596;2023-09-30T04:21:29;12.40;99.90
21662;DHT22;10992;48.170;8.596;2023-09-30T04:24:00;12.40;99.90
21662;DHT22;10992;48.170;8.596;2023-09-30T04:26:27;12.40;99.90
21662;DHT22;10992;48.170;8.596;2023-09-30T04:28:54;12.40;99.90
21662;DHT22;10992;48.170;8.596;2023-09-30T04:31:22;12.40;99.90
21662;DHT22;10992;48.170;8.596;2023-09-30T04:33:50;12.40;99.90
21662;DHT22;10992;48.170;8.596;2023-09-30T04:36:20;12.40;99.90
21662;DHT22;10992;48.170;8.596;2023-09-30T04:38:48;12.50;99.90
21662;DHT22;10992;48.170;8.596;2023-09-30T04:41:15;12.60;99.90
21662;DHT22;10992;48.170;8.596;2023-09-30T04:43:42;12.60;99.90
21662;DHT22;10992;48.170;8.596;2023-09-30T04:46:10;12.50;99.90
21662;DHT22;10992;48.170;8.596;2023-09-30T04:48:40;12.40;99.90
21662;DHT22;10992;48.170;8.596;2023-09-30T04:51:08;12.40;99.90
21662;DHT22;10992;48.170;8.596;2023-09-30T04:53:37;12.30;99.90
21662;DHT22;10992;48.170;8.596;2023-09-30T04:56:04;12.30;99.90
21662;DHT22;10992;48.170;8.596;2023-09-30T04:58:31;12.30;99.90
21662;DHT22;10992;48.170;8.596;2023-09-30T05:00:58;12.30;99.90
21662;DHT22;10992;48.170;8.596;2023-09-30T05:03:25;12.20;99.90
21662;DHT22;10992;48.170;8.596;2023-09-30T05:05:53;12.10;99.90
21662;DHT22;10992;48.170;8.596;2023-09-30T05:08:24;12.10;99.90
21662;DHT22;10992;48.170;8.596;2023-09-30T05:10:51;12.00;99.90
21662;DHT22;10992;48.170;8.596;2023-09-30T05:13:22;12.10;99.90
21662;DHT22;10992;48.170;8.596;2023-09-30T05:15:52;12.00;99.90
21662;DHT22;10992;48.170;8.596;2023-09-30T05:18:20;12.00;99.90
21662;DHT22;10992;48.170;8.596;2023-09-30T05:20:47;12.10;99.90
21662;DHT22;10992;48.170;8.596;2023-09-30T05:23:14;12.20;99.90
21662;DHT22;10992;48.170;8.596;2023-09-30T05:25:41;12.10;99.90
21662;DHT22;10992;48.170;8.596;2023-09-30T05:28:09;12.10;99.90
21662;DHT22;10992;48.170;8.596;2023-09-30T05:30:38;12.10;99.90
21662;DHT22;10992;48.170;8.596;2023-09-30T05:33:06;12.20;99.90
21662;DHT22;10992;48.170;8.596;2023-09-30T05:35:33;12.20;99.90
21662;DHT22;10992;48.170;8.596;2023-09-30T05:38:00;12.10;99.90
21662;DHT22;10992;48.170;8.596;2023-09-30T05:40:27;12.20;99.90
21662;DHT22;10992;48.170;8.596;2023-09-30T05:42:57;12.20;99.90
21662;DHT22;10992;48.170;8.596;2023-09-30T05:45:27;12.30;99.90
21662;DHT22;10992;48.170;8.596;2023-09-30T05:47:55;12.20;99.90
21662;DHT22;10992;48.170;8.596;2023-09-30T05:50:24;12.20;99.90
21662;DHT22;10992;48.170;8.596;2023-09-30T05:52:54;12.20;99.90
21662;DHT22;10992;48.170;8.596;2023-09-30T05:55:22;12.10;99.90
21662;DHT22;10992;48.170;8.596;2023-09-30T05:57:50;12.10;99.90
21662;DHT22;10992;48.170;8.596;2023-09-30T06:00:18;12.10;99.90
21662;DHT22;10992;48.170;8.596;2023-09-30T06:03:03;12.30;99.90
21662;DHT22;10992;48.170;8.596;2023-09-30T06:05:33;12.50;99.90
21662;DHT22;10992;48.170;8.596;2023-09-30T06:08:03;12.80;99.90
21662;DHT22;10992;48.170;8.596;2023-09-30T06:10:30;13.00;99.90
21662;DHT22;10992;48.170;8.596;2023-09-30T06:12:58;13.40;99.90
21662;DHT22;10992;48.170;8.596;2023-09-30T06:15:25;13.50;99.90
21662;DHT22;10992;48.170;8.596;2023-09-30T06:17:56;13.70;99.90
21662;DHT22;10992;48.170;8.596;2023-09-30T06:20:26;13.90;99.90
21662;DHT22;10992;48.170;8.596;2023-09-30T06:22:54;14.00;99.90
21662;DHT22;10992;48.170;8.596;2023-09-30T06:25:22;14.10;99.90
21662;DHT22;10992;48.170;8.596;2023-09-30T06:27:50;14.30;99.90
21662;DHT22;10992;48.170;8.596;2023-09-30T06:30:18;14.60;99.90
21662;DHT22;10992;48.170;8.596;2023-09-30T06:32:47;14.80;99.90
21662;DHT22;10992;48.170;8.596;2023-09-30T06:35:14;14.50;99.90
21662;DHT22;10992;48.170;8.596;2023-09-30T06:37:42;14.20;99.90
21662;DHT22;10992;48.170;8.596;2023-09-30T06:40:10;13.90;99.90
21662;DHT22;10992;48.170;8.596;2023-09-30T06:42:39;13.70;99.90
21662;DHT22;10992;48.170;8.596;2023-09-30T06:45:09;13.70;99.90
21662;DHT22;10992;48.170;8.596;2023-09-30T06:47:38;13.60;99.90
21662;DHT22;10992;48.170;8.596;2023-09-30T06:50:11;13.60;99.90
21662;DHT22;10992;48.170;8.596;2023-09-30T06:52:40;13.60;99.90
21662;DHT22;10992;48.170;8.596;2023-09-30T06:55:09;13.60;99.90
21662;DHT22;10992;48.170;8.596;2023-09-30T06:57:37;13.70;99.90
21662;DHT22;10992;48.170;8.596;2023-09-30T07:00:09;13.80;99.90
21662;DHT22;10992;48.170;8.596;2023-09-30T07:02:36;14.10;99.90
21662;DHT22;10992;48.170;8.596;2023-09-30T07:05:11;14.40;99.90
21662;DHT22;10992;48.170;8.596;2023-09-30T07:07:42;14.60;99.90
21662;DHT22;10992;48.170;8.596;2023-09-30T07:10:12;14.70;99.90
21662;DHT22;10992;48.170;8.596;2023-09-30T07:12:39;14.90;99.90
21662;DHT22;10992;48.170;8.596;2023-09-30T07:15:08;15.10;99.90
21662;DHT22;10992;48.170;8.596;2023-09-30T07:17:36;15.30;99.90
21662;DHT22;10992;48.170;8.596;2023-09-30T07:20:04;15.60;99.90
21662;DHT22;10992;48.170;8.596;2023-09-30T07:22:33;15.90;99.90
21662;DHT22;10992;48.170;8.596;2023-09-30T07:25:18;16.00;99.90
21662;DHT22;10992;48.170;8.596;2023-09-30T07:27:45;16.00;99.90
21662;DHT22;10992;48.170;8.596;2023-09-30T07:30:13;16.20;99.90
21662;DHT22;10992;48.170;8.596;2023-09-30T07:32:42;16.20;99.90
21662;DHT22;10992;48.170;8.596;2023-09-30T07:35:10;16.20;99.90
21662;DHT22;10992;48.170;8.596;2023-09-30T07:37:37;16.00;99.90
21662;DHT22;10992;48.170;8.596;2023-09-30T07:40:04;16.10;99.90
21662;DHT22;10992;48.170;8.596;2023-09-30T07:42:32;16.20;99.90
21662;DHT22;10992;48.170;8.596;2023-09-30T07:45:00;16.20;99.90
21662;DHT22;10992;48.170;8.596;2023-09-30T07:47:27;16.60;99.90
21662;DHT22;10992;48.170;8.596;2023-09-30T07:49:54;16.90;99.90
21662;DHT22;10992;48.170;8.596;2023-09-30T07:52:22;16.80;99.90
21662;DHT22;10992;48.170;8.596;2023-09-30T07:54:49;16.50;99.90
21662;DHT22;10992;48.170;8.596;2023-09-30T07:57:15;16.80;99.90
21662;DHT22;10992;48.170;8.596;2023-09-30T07:59:43;16.80;99.90
21662;DHT22;10992;48.170;8.596;2023-09-30T08:02:10;17.10;99.90
21662;DHT22;10992;48.170;8.596;2023-09-30T08:04:36;17.10;99.90
21662;DHT22;10992;48.170;8.596;2023-09-30T08:07:04;17.20;99.90
21662;DHT22;10992;48.170;8.596;2023-09-30T08:09:30;17.60;99.90
21662;DHT22;10992;48.170;8.596;2023-09-30T08:11:57;18.10;99.90
21662;DHT22;10992;48.170;8.596;2023-09-30T08:14:25;18.30;99.90
21662;DHT22;10992;48.170;8.596;2023-09-30T08:16:52;18.50;99.90
21662;DHT22;10992;48.170;8.596;2023-09-30T08:19:19;18.70;99.90
21662;DHT22;10992;48.170;8.596;2023-09-30T08:21:47;19.00;99.90
21662;DHT22;10992;48.170;8.596;2023-09-30T08:24:15;18.90;99.90
21662;DHT22;10992;48.170;8.596;2023-09-30T08:26:43;18.80;99.90
21662;DHT22;10992;48.170;8.596;2023-09-30T08:29:10;18.60;99.90
21662;DHT22;10992;48.170;8.596;2023-09-30T08:31:37;18.60;99.90
21662;DHT22;10992;48.170;8.596;2023-09-30T08:34:04;18.60;99.90
21662;DHT22;10992;48.170;8.596;2023-09-30T08:36:31;19.30;99.90
21662;DHT22;10992;48.170;8.596;2023-09-30T08:38:58;19.80;99.90
21662;DHT22;10992;48.170;8.596;2023-09-30T08:41:31;19.90;99.90
21662;DHT22;10992;48.170;8.596;2023-09-30T08:44:03;19.60;99.90
21662;DHT22;10992;48.170;8.596;2023-09-30T08:46:31;19.50;99.90
21662;DHT22;10992;48.170;8.596;2023-09-30T08:49:03;19.80;99.90
21662;DHT22;10992;48.170;8.596;2023-09-30T08:51:31;20.40;99.90
21662;DHT22;10992;48.170;8.596;2023-09-30T08:53:59;20.80;99.90
21662;DHT22;10992;48.170;8.596;2023-09-30T08:56:31;20.80;99.90
21662;DHT22;10992;48.170;8.596;2023-09-30T08:59:02;19.90;99.90
21662;DHT22;10992;48.170;8.596;2023-09-30T09:01:30;20.50;99.90
21662;DHT22;10992;48.170;8.596;2023-09-30T09:03:57;20.70;99.90
21662;DHT22;10992;48.170;8.596;2023-09-30T09:06:26;20.20;99.90
21662;DHT22;10992;48.170;8.596;2023-09-30T09:08:53;20.40;99.90
21662;DHT22;10992;48.170;8.596;2023-09-30T09:11:20;20.00;99.90
21662;DHT22;10992;48.170;8.596;2023-09-30T09:13:53;20.40;99.90
21662;DHT22;10992;48.170;8.596;2023-09-30T09:16:24;19.80;99.90
21662;DHT22;10992;48.170;8.596;2023-09-30T09:18:51;20.80;99.90
21662;DHT22;10992;48.170;8.596;2023-09-30T09:21:21;20.70;99.90
21662;DHT22;10992;48.170;8.596;2023-09-30T09:23:53;20.40;99.90
21662;DHT22;10992;48.170;8.596;2023-09-30T09:26:26;20.80;99.90
21662;DHT22;10992;48.170;8.596;2023-09-30T09:28:57;20.60;99.90
21662;DHT22;10992;48.170;8.596;2023-09-30T09:31:27;20.70;99.90
21662;DHT22;10992;48.170;8.596;2023-09-30T09:33:54;20.90;99.90
21662;DHT22;10992;48.170;8.596;2023-09-30T09:36:22;20.90;99.90
21662;DHT22;10992;48.170;8.596;2023-09-30T09:39:04;20.80;99.90
21662;DHT22;10992;48.170;8.596;2023-09-30T09:41:31;21.10;99.90
21662;DHT22;10992;48.170;8.596;2023-09-30T09:43:59;21.20;99.90
21662;DHT22;10992;48.170;8.596;2023-09-30T09:46:27;20.90;99.90
21662;DHT22;10992;48.170;8.596;2023-09-30T09:48:55;21.70;99.90
21662;DHT22;10992;48.170;8.596;2023-09-30T09:51:24;22.00;99.90
21662;DHT22;10992;48.170;8.596;2023-09-30T09:53:52;22.20;99.90
21662;DHT22;10992;48.170;8.596;2023-09-30T09:56:22;22.30;99.90
21662;DHT22;10992;48.170;8.596;2023-09-30T09:58:49;23.20;99.90
21662;DHT22;10992;48.170;8.596;2023-09-30T10:01:17;22.80;99.90
21662;DHT22;10992;48.170;8.596;2023-09-30T10:03:44;23.50;99.90
21662;DHT22;10992;48.170;8.596;2023-09-30T10:06:11;23.30;99.90
21662;DHT22;10992;48.170;8.596;2023-09-30T10:08:41;23.50;99.90
21662;DHT22;10992;48.170;8.596;2023-09-30T10:11:17;24.10;99.90
21662;DHT22;10992;48.170;8.596;2023-09-30T10:13:54;23.70;99.90
21662;DHT22;10992;48.170;8.596;2023-09-30T10:19:20;23.90;99.90
21662;DHT22;10992;48.170;8.596;2023-09-30T10:24:48;25.10;99.90
21662;DHT22;10992;48.170;8.596;2023-09-30T10:29:58;24.20;99.90
21662;DHT22;10992;48.170;8.596;2023-09-30T10:35:41;25.40;99.90
21662;DHT22;10992;48.170;8.596;2023-09-30T10:40:57;25.20;99.90
21662;DHT22;10992;48.170;8.596;2023-09-30T10:45:57;25.80;99.90
21662;DHT22;10992;48.170;8.596;2023-09-30T10:53:22;24.30;99.90
21662;DHT22;10992;48.170;8.596;2023-09-30T10:55:57;23.80;99.90
21662;DHT22;10992;48.170;8.596;2023-09-30T10:58:39;23.60;99.90
21662;DHT22;10992;48.170;8.596;2023-09-30T11:01:06;23.20;99.90
21662;DHT22;10992;48.170;8.596;2023-09-30T11:03:33;22.30;99.90
21662;DHT22;10992;48.170;8.596;2023-09-30T11:06:00;22.10;99.90
21662;DHT22;10992;48.170;8.596;2023-09-30T11:08:41;21.90;99.90
21662;DHT22;10992;48.170;8.596;2023-09-30T11:11:13;21.70;99.90
21662;DHT22;10992;48.170;8.596;2023-09-30T11:13:41;21.50;99.90
21662;DHT22;10992;48.170;8.596;2023-09-30T11:16:08;21.10;99.90
21662;DHT22;10992;48.170;8.596;2023-09-30T11:18:35;21.20;99.90
21662;DHT22;10992;48.170;8.596;2023-09-30T11:21:09;21.30;99.90
21662;DHT22;10992;48.170;8.596;2023-09-30T11:23:37;21.70;99.90
21662;DHT22;10992;48.170;8.596;2023-09-30T11:26:04;21.60;99.90
21662;DHT22;10992;48.170;8.596;2023-09-30T11:28:43;21.80;99.90
21662;DHT22;10992;48.170;8.596;2023-09-30T11:31:12;22.20;99.90
21662;DHT22;10992;48.170;8.596;2023-09-30T11:33:52;22.10;99.90
21662;DHT22;10992;48.170;8.596;2023-09-30T11:36:20;21.90;99.90
21662;DHT22;10992;48.170;8.596;2023-09-30T11:38:50;21.90;99.90
21662;DHT22;10992;48.170;8.596;2023-09-30T11:41:18;21.60;99.90
21662;DHT22;10992;48.170;8.596;2023-09-30T11:44:21;22.20;99.90
21662;DHT22;10992;48.170;8.596;2023-09-30T11:46:50;22.60;99.90
21662;DHT22;10992;48.170;8.596;2023-09-30T11:49:36;21.70;99.90
21662;DHT22;10992;48.170;8.596;2023-09-30T11:52:08;21.10;99.90
21662;DHT22;10992;48.170;8.596;2023-09-30T11:54:37;21.10;99.90
21662;DHT22;10992;48.170;8.596;2023-09-30T11:57:07;20.90;99.90
21662;DHT22;10992;48.170;8.596;2023-09-30T11:59:37;21.60;99.90
21662;DHT22;10992;48.170;8.596;2023-09-30T12:02:04;22.50;99.90
21662;DHT22;10992;48.170;8.596;2023-09-30T12:04:42;22.50;99.90
21662;DHT22;10992;48.170;8.596;2023-09-30T12:07:09;22.20;99.90
21662;DHT22;10992;48.170;8.596;2023-09-30T12:09:37;21.80;99.90
21662;DHT22;10992;48.170;8.596;2023-09-30T12:12:05;21.40;99.90
21662;DHT22;10992;48.170;8.596;2023-09-30T12:14:35;20.40;99.90
21662;DHT22;10992;48.170;8.596;2023-09-30T12:17:02;20.50;99.90
21662;DHT22;10992;48.170;8.596;2023-09-30T12:19:29;20.60;99.90
21662;DHT22;10992;48.170;8.596;2023-09-30T12:21:56;20.70;99.90
21662;DHT22;10992;48.170;8.596;2023-09-30T12:24:23;20.70;99.90
21662;DHT22;10992;48.170;8.596;2023-09-30T12:26:51;21.00;99.90
21662;DHT22;10992;48.170;8.596;2023-09-30T12:29:20;21.10;99.90
21662;DHT22;10992;48.170;8.596;2023-09-30T12:31:50;21.20;99.90
21662;DHT22;10992;48.170;8.596;2023-09-30T12:34:21;21.30;99.90
21662;DHT22;10992;48.170;8.596;2023-09-30T12:36:50;21.30;99.90
21662;DHT22;10992;48.170;8.596;2023-09-30T12:39:18;21.50;99.90
21662;DHT22;10992;48.170;8.596;2023-09-30T12:41:52;21.80;99.90
21662;DHT22;10992;48.170;8.596;2023-09-30T12:44:18;21.90;99.90
21662;DHT22;10992;48.170;8.596;2023-09-30T12:46:46;22.10;99.90
21662;DHT22;10992;48.170;8.596;2023-09-30T12:49:13;22.30;99.90
21662;DHT22;10992;48.170;8.596;2023-09-30T12:51:41;22.90;99.90
21662;DHT22;10992;48.170;8.596;2023-09-30T12:54:08;23.10;99.90
21662;DHT22;10992;48.170;8.596;2023-09-30T12:56:35;23.10;99.90
21662;DHT22;10992;48.170;8.596;2023-09-30T12:59:02;22.70;99.90
21662;DHT22;10992;48.170;8.596;2023-09-30T13:01:30;22.20;99.90
21662;DHT22;10992;48.170;8.596;2023-09-30T13:04:02;22.10;99.90
21662;DHT22;10992;48.170;8.596;2023-09-30T13:06:29;22.30;99.90
21662;DHT22;10992;48.170;8.596;2023-09-30T13:08:58;22.50;99.90
21662;DHT22;10992;48.170;8.596;2023-09-30T13:11:26;22.80;99.90
21662;DHT22;10992;48.170;8.596;2023-09-30T13:13:53;23.00;99.90
21662;DHT22;10992;48.170;8.596;2023-09-30T13:16:20;22.90;99.90
21662;DHT22;10992;48.170;8.596;2023-09-30T13:18:47;23.00;99.90
21662;DHT22;10992;48.170;8.596;2023-09-30T13:21:14;23.30;99.90
21662;DHT22;10992;48.170;8.596;2023-09-30T13:23:41;22.80;99.90
21662;DHT22;10992;48.170;8.596;2023-09-30T13:26:08;22.70;99.90
21662;DHT22;10992;48.170;8.596;2023-09-30T13:28:35;22.60;99.90
21662;DHT22;10992;48.170;8.596;2023-09-30T13:31:02;22.20;99.90
21662;DHT22;10992;48.170;8.596;2023-09-30T13:33:29;22.80;99.90
21662;DHT22;10992;48.170;8.596;2023-09-30T13:35:56;22.50;99.90
21662;DHT22;10992;48.170;8.596;2023-09-30T13:38:23;22.50;99.90
21662;DHT22;10992;48.170;8.596;2023-09-30T13:40:50;22.10;99.90
21662;DHT22;10992;48.170;8.596;2023-09-30T13:43:17;21.80;99.90
21662;DHT22;10992;48.170;8.596;2023-09-30T13:45:44;21.70;99.90
21662;DHT22;10992;48.170;8.596;2023-09-30T13:48:11;22.10;99.90
21662;DHT22;10992;48.170;8.596;2023-09-30T13:50:38;22.30;99.90
21662;DHT22;10992;48.170;8.596;2023-09-30T13:53:05;22.60;99.90
21662;DHT22;10992;48.170;8.596;2023-09-30T13:55:32;22.70;99.90
21662;DHT22;10992;48.170;8.596;2023-09-30T13:57:59;22.90;99.90
21662;DHT22;10992;48.170;8.596;2023-09-30T14:00:26;22.50;99.90
21662;DHT22;10992;48.170;8.596;2023-09-30T14:02:53;22.30;99.90
21662;DHT22;10992;48.170;8.596;2023-09-30T14:05:20;22.00;99.90
21662;DHT22;10992;48.170;8.596;2023-09-30T14:07:47;22.10;99.90
21662;DHT22;10992;48.170;8.596;2023-09-30T14:10:15;22.20;99.90
21662;DHT22;10992;48.170;8.596;2023-09-30T14:12:42;21.90;99.90
21662;DHT22;10992;48.170;8.596;2023-09-30T14:15:10;21.60;99.90
21662;DHT22;10992;48.170;8.596;2023-09-30T14:17:37;21.40;99.90
21662;DHT22;10992;48.170;8.596;2023-09-30T14:20:05;21.20;99.90
21662;DHT22;10992;48.170;8.596;2023-09-30T14:22:33;21.50;99.90
21662;DHT22;10992;48.170;8.596;2023-09-30T14:25:00;21.80;99.90
21662;DHT22;10992;48.170;8.596;2023-09-30T14:27:27;21.50;99.90
21662;DHT22;10992;48.170;8.596;2023-09-30T14:29:54;21.40;99.90
21662;DHT22;10992;48.170;8.596;2023-09-30T14:32:21;21.70;99.90
21662;DHT22;10992;48.170;8.596;2023-09-30T14:34:50;21.80;99.90
21662;DHT22;10992;48.170;8.596;2023-09-30T14:37:18;22.30;99.90
21662;DHT22;10992;48.170;8.596;2023-09-30T14:39:45;22.20;99.90
21662;DHT22;10992;48.170;8.596;2023-09-30T14:42:11;22.20;99.90
21662;DHT22;10992;48.170;8.596;2023-09-30T14:44:38;21.90;99.90
21662;DHT22;10992;48.170;8.596;2023-09-30T14:47:05;21.60;99.90
21662;DHT22;10992;48.170;8.596;2023-09-30T14:49:32;21.30;99.90
21662;DHT22;10992;48.170;8.596;2023-09-30T14:51:59;20.90;99.90
21662;DHT22;10992;48.170;8.596;2023-09-30T14:54:34;20.70;99.90
21662;DHT22;10992;48.170;8.596;2023-09-30T14:57:01;20.50;99.90
21662;DHT22;10992;48.170;8.596;2023-09-30T14:59:28;20.30;99.90
21662;DHT22;10992;48.170;8.596;2023-09-30T15:01:55;20.30;99.90
21662;DHT22;10992;48.170;8.596;2023-09-30T15:04:22;20.20;99.90
21662;DHT22;10992;48.170;8.596;2023-09-30T15:06:50;20.20;99.90
21662;DHT22;10992;48.170;8.596;2023-09-30T15:09:17;20.30;99.90
21662;DHT22;10992;48.170;8.596;2023-09-30T15:11:44;20.30;99.90
21662;DHT22;10992;48.170;8.596;2023-09-30T15:14:11;20.40;99.90
21662;DHT22;10992;48.170;8.596;2023-09-30T15:16:38;20.60;99.90
21662;DHT22;10992;48.170;8.596;2023-09-30T15:19:05;20.60;99.90
21662;DHT22;10992;48.170;8.596;2023-09-30T15:21:32;20.70;99.90
21662;DHT22;10992;48.170;8.596;2023-09-30T15:23:59;21.20;99.90
21662;DHT22;10992;48.170;8.596;2023-09-30T15:26:29;21.10;99.90
21662;DHT22;10992;48.170;8.596;2023-09-30T15:28:57;21.10;99.90
21662;DHT22;10992;48.170;8.596;2023-09-30T15:31:28;21.40;99.90
21662;DHT22;10992;48.170;8.596;2023-09-30T15:33:59;21.30;99.90
21662;DHT22;10992;48.170;8.596;2023-09-30T15:36:26;21.10;99.90
21662;DHT22;10992;48.170;8.596;2023-09-30T15:38:53;21.10;99.90
21662;DHT22;10992;48.170;8.596;2023-09-30T15:41:23;20.90;99.90
21662;DHT22;10992;48.170;8.596;2023-09-30T15:43:51;20.80;99.90
21662;DHT22;10992;48.170;8.596;2023-09-30T15:46:18;20.50;99.90
21662;DHT22;10992;48.170;8.596;2023-09-30T15:48:46;20.10;99.90
21662;DHT22;10992;48.170;8.596;2023-09-30T15:51:13;19.80;99.90
21662;DHT22;10992;48.170;8.596;2023-09-30T15:53:40;19.70;99.90
21662;DHT22;10992;48.170;8.596;2023-09-30T15:56:07;19.50;99.90
21662;DHT22;10992;48.170;8.596;2023-09-30T15:58:34;19.40;99.90